createdAt,value
2017-08-17T00:01:49.473Z,88.29
2017-08-17T00:04:17.055Z,88.51
2017-08-17T00:06:44.499Z,88.19
2017-08-17T00:09:11.980Z,87.35
2017-08-17T00:11:39.442Z,87.81
2017-08-17T00:14:06.936Z,88.09
2017-08-17T00:16:34.422Z,88.09
2017-08-17T00:19:01.984Z,88.24
2017-08-17T00:21:29.536Z,87.61
2017-08-17T00:23:56.983Z,87.42
2017-08-17T00:26:24.448Z,87.36
2017-08-17T00:28:51.895Z,87.44
2017-08-17T00:31:19.456Z,88.29
2017-08-17T00:33:46.907Z,88.07
2017-08-17T00:36:15.252Z,87.83
2017-08-17T00:38:42.712Z,87.63
2017-08-17T00:41:10.183Z,87.99
2017-08-17T00:43:37.661Z,86.27
2017-08-17T00:46:05.125Z,86.60
2017-08-17T00:48:32.673Z,87.20
2017-08-17T00:51:00.138Z,87.11
2017-08-17T00:53:27.687Z,87.19
2017-08-17T00:55:55.164Z,87.18
2017-08-17T00:58:22.616Z,87.31
2017-08-17T01:00:50.155Z,86.90
2017-08-17T01:03:17.613Z,87.05
2017-08-17T01:05:45.095Z,86.40
2017-08-17T01:08:12.543Z,86.99
2017-08-17T01:10:40.040Z,86.41
2017-08-17T01:13:07.548Z,86.46
2017-08-17T01:15:35.036Z,86.83
2017-08-17T01:18:02.512Z,87.18
2017-08-17T01:20:30.015Z,87.44
2017-08-17T01:22:57.488Z,87.28
2017-08-17T01:25:25.039Z,87.17
2017-08-17T01:27:52.531Z,86.70
2017-08-17T01:30:20.048Z,86.71
2017-08-17T01:32:47.603Z,87.08
2017-08-17T01:35:15.517Z,86.64
2017-08-17T01:37:43.019Z,86.64
2017-08-17T01:40:10.473Z,87.00
2017-08-17T01:42:38.059Z,86.77
2017-08-17T01:45:05.511Z,87.18
2017-08-17T01:47:33.070Z,87.37
2017-08-17T01:50:00.619Z,88.36
2017-08-17T01:52:28.176Z,88.12
2017-08-17T01:54:55.664Z,87.51
2017-08-17T01:57:23.124Z,87.13
2017-08-17T01:59:50.655Z,88.34
2017-08-17T02:02:18.204Z,88.19
2017-08-17T02:07:05.675Z,87.53
2017-08-17T02:09:33.153Z,88.08
2017-08-17T02:12:00.660Z,88.56
2017-08-17T02:14:28.123Z,88.29
2017-08-17T02:16:55.603Z,88.46
2017-08-17T02:19:23.135Z,88.61
2017-08-17T02:21:50.592Z,88.61
2017-08-17T02:24:18.064Z,88.23
2017-08-17T02:26:45.611Z,86.93
2017-08-17T02:29:13.162Z,87.55
2017-08-17T02:31:40.656Z,87.20
2017-08-17T02:34:08.184Z,87.28
2017-08-17T02:36:35.736Z,87.26
2017-08-17T02:39:03.203Z,87.70
2017-08-17T02:41:30.751Z,87.98
2017-08-17T02:43:58.208Z,88.20
2017-08-17T02:46:25.766Z,88.00
2017-08-17T02:48:53.228Z,87.78
2017-08-17T02:51:20.694Z,87.43
2017-08-17T02:53:48.143Z,87.79
2017-08-17T02:56:15.611Z,87.67
2017-08-17T02:58:43.069Z,87.33
2017-08-17T03:01:10.535Z,87.08
2017-08-17T03:03:37.984Z,86.93
2017-08-17T03:06:05.472Z,86.52
2017-08-17T03:08:32.976Z,86.71
2017-08-17T03:11:00.421Z,86.94
2017-08-17T03:13:27.888Z,86.96
2017-08-17T03:15:55.447Z,86.99
2017-08-17T03:18:22.915Z,86.95
2017-08-17T03:20:50.371Z,86.65
2017-08-17T03:23:17.848Z,87.03
2017-08-17T03:25:45.376Z,87.89
2017-08-17T03:28:12.849Z,88.13
2017-08-17T03:30:40.292Z,87.69
2017-08-17T03:33:07.759Z,87.83
2017-08-17T03:35:35.212Z,87.78
2017-08-17T03:38:02.675Z,87.17
2017-08-17T03:40:30.217Z,87.11
2017-08-17T03:42:57.699Z,86.80
2017-08-17T03:45:25.227Z,86.94
2017-08-17T03:47:52.703Z,86.69
2017-08-17T03:50:20.155Z,86.70
2017-08-17T03:52:47.708Z,86.90
2017-08-17T03:55:15.264Z,87.26
2017-08-17T03:57:42.821Z,87.15
2017-08-17T04:00:10.280Z,87.21
2017-08-17T04:02:37.848Z,87.08
2017-08-17T04:05:05.347Z,86.94
2017-08-17T04:07:32.847Z,87.46
2017-08-17T04:10:00.312Z,87.52
2017-08-17T04:12:27.863Z,87.41
2017-08-17T04:14:56.159Z,87.33
2017-08-17T04:17:23.622Z,87.04
2017-08-17T04:19:51.157Z,87.47
2017-08-17T04:22:18.617Z,86.75
2017-08-17T04:24:46.083Z,87.55
2017-08-17T04:27:13.804Z,87.63
2017-08-17T04:29:41.282Z,87.04
2017-08-17T04:32:08.849Z,87.05
2017-08-17T04:34:36.319Z,87.16
2017-08-17T04:37:03.864Z,87.30
2017-08-17T04:39:31.329Z,87.47
2017-08-17T04:41:58.880Z,87.61
2017-08-17T04:44:26.337Z,87.45
2017-08-17T04:46:53.811Z,87.34
2017-08-17T04:49:21.259Z,87.20
2017-08-17T04:51:48.728Z,87.98
2017-08-17T04:54:16.264Z,87.96
2017-08-17T04:57:10.179Z,88.83
2017-08-17T04:59:37.628Z,88.08
2017-08-17T05:02:05.098Z,87.81
2017-08-17T05:04:32.611Z,87.16
2017-08-17T05:07:00.198Z,87.14
2017-08-17T05:09:27.708Z,86.59
2017-08-17T05:11:55.368Z,85.57
2017-08-17T05:14:22.839Z,84.93
2017-08-17T05:16:50.315Z,85.44
2017-08-17T05:19:17.918Z,86.30
2017-08-17T05:21:45.424Z,87.36
2017-08-17T05:24:12.993Z,87.65
2017-08-17T05:26:40.456Z,87.52
2017-08-17T05:29:08.354Z,87.53
2017-08-17T05:31:35.828Z,87.40
2017-08-17T05:34:03.299Z,87.12
2017-08-17T05:36:30.764Z,86.16
2017-08-17T05:38:58.243Z,85.15
2017-08-17T05:41:25.883Z,85.25
2017-08-17T05:43:53.451Z,86.68
2017-08-17T05:46:20.902Z,86.21
2017-08-17T05:48:48.371Z,87.46
2017-08-17T05:51:15.840Z,87.13
2017-08-17T05:53:43.733Z,85.03
2017-08-17T05:56:11.248Z,85.11
2017-08-17T05:58:38.807Z,84.01
2017-08-17T06:01:06.280Z,84.31
2017-08-17T06:03:33.820Z,83.29
2017-08-17T06:06:02.351Z,82.25
2017-08-17T06:08:29.807Z,82.26
2017-08-17T06:10:57.271Z,81.73
2017-08-17T06:13:24.771Z,80.70
2017-08-17T06:15:52.236Z,80.90
2017-08-17T06:18:19.785Z,79.44
2017-08-17T06:20:47.255Z,80.59
2017-08-17T06:23:14.704Z,81.04
2017-08-17T06:25:42.172Z,81.31
2017-08-17T06:28:09.713Z,81.99
2017-08-17T06:30:37.180Z,81.12
2017-08-17T06:33:04.625Z,81.85
2017-08-17T06:35:32.099Z,82.48
2017-08-17T06:37:59.591Z,81.83
2017-08-17T06:40:27.071Z,83.64
2017-08-17T06:42:54.560Z,82.81
2017-08-17T06:45:22.044Z,82.77
2017-08-17T06:47:49.671Z,81.58
2017-08-17T06:50:17.128Z,81.93
2017-08-17T06:52:44.598Z,80.70
2017-08-17T06:55:12.151Z,81.33
2017-08-17T06:57:39.860Z,79.57
2017-08-17T07:00:07.353Z,80.84
2017-08-17T07:02:34.827Z,81.31
2017-08-17T07:05:02.380Z,81.33
2017-08-17T07:07:30.061Z,80.77
2017-08-17T07:09:57.610Z,79.85
2017-08-17T07:12:25.088Z,80.21
2017-08-17T07:14:52.554Z,78.15
2017-08-17T07:17:20.032Z,79.24
2017-08-17T07:19:47.596Z,77.75
2017-08-17T07:22:15.096Z,77.30
2017-08-17T07:24:42.555Z,75.21
2017-08-17T07:27:10.112Z,77.37
2017-08-17T07:29:37.619Z,74.52
2017-08-17T07:32:05.091Z,77.25
2017-08-17T07:34:32.680Z,76.92
2017-08-17T07:37:00.235Z,76.07
2017-08-17T07:39:27.717Z,75.66
2017-08-17T07:41:55.255Z,75.78
2017-08-17T07:44:22.807Z,76.27
2017-08-17T07:46:50.264Z,76.42
2017-08-17T07:49:17.757Z,75.93
2017-08-17T07:51:45.280Z,77.08
2017-08-17T07:54:12.759Z,74.72
2017-08-17T07:56:40.295Z,74.10
2017-08-17T07:59:08.082Z,76.56
2017-08-17T08:01:35.580Z,73.19
2017-08-17T08:04:03.084Z,75.66
2017-08-17T08:06:30.551Z,74.10
2017-08-17T08:08:58.088Z,75.60
2017-08-17T08:11:25.555Z,73.96
2017-08-17T08:13:53.035Z,74.43
2017-08-17T08:16:20.564Z,74.06
2017-08-17T08:18:48.072Z,73.59
2017-08-17T08:21:15.531Z,73.62
2017-08-17T08:23:43.442Z,73.47
2017-08-17T08:26:10.917Z,74.43
2017-08-17T08:28:38.455Z,75.22
2017-08-17T08:31:05.935Z,73.31
2017-08-17T08:33:33.472Z,76.87
2017-08-17T08:36:00.947Z,76.05
2017-08-17T08:38:28.486Z,73.96
2017-08-17T08:40:56.236Z,75.61
2017-08-17T08:43:23.719Z,74.70
2017-08-17T08:45:51.268Z,75.00
2017-08-17T08:48:18.721Z,75.16
2017-08-17T08:50:46.222Z,74.93
2017-08-17T08:53:13.739Z,73.98
2017-08-17T08:55:41.296Z,72.62
2017-08-17T08:58:08.856Z,73.05
2017-08-17T09:00:36.416Z,72.88
2017-08-17T09:03:03.872Z,72.73
2017-08-17T09:05:31.347Z,73.56
2017-08-17T09:07:58.885Z,73.67
2017-08-17T09:10:26.450Z,73.76
2017-08-17T09:12:54.002Z,73.21
2017-08-17T09:15:21.487Z,73.38
2017-08-17T09:17:49.019Z,72.59
2017-08-17T09:20:16.512Z,73.55
2017-08-17T09:22:44.063Z,73.56
2017-08-17T09:25:15.441Z,73.57
2017-08-17T09:27:43.012Z,72.70
2017-08-17T09:30:15.161Z,70.82
2017-08-17T09:32:42.878Z,70.63
2017-08-17T09:35:10.327Z,70.97
2017-08-17T09:37:37.803Z,70.31
2017-08-17T09:40:05.388Z,70.13
2017-08-17T09:42:32.903Z,69.64
2017-08-17T09:45:00.360Z,70.27
2017-08-17T09:47:28.496Z,67.91
2017-08-17T09:49:56.345Z,69.84
2017-08-17T09:52:24.110Z,69.32
2017-08-17T09:54:51.703Z,67.49
2017-08-17T09:57:19.271Z,69.42
2017-08-17T09:59:46.845Z,69.54
2017-08-17T10:02:14.394Z,68.10
2017-08-17T10:04:41.953Z,68.61
2017-08-17T10:07:09.403Z,68.63
2017-08-17T10:09:36.880Z,67.90
2017-08-17T10:12:04.425Z,66.75
2017-08-17T10:14:31.980Z,65.41
2017-08-17T10:16:59.431Z,66.05
2017-08-17T10:19:26.997Z,66.19
2017-08-17T10:21:54.442Z,66.66
2017-08-17T10:24:22.070Z,65.79
2017-08-17T10:26:51.213Z,67.28
2017-08-17T10:29:18.719Z,67.19
2017-08-17T10:31:46.774Z,65.58
2017-08-17T10:34:14.964Z,64.33
2017-08-17T10:36:42.599Z,61.75
2017-08-17T10:39:11.157Z,61.63
2017-08-17T10:41:38.635Z,59.05
2017-08-17T10:44:06.635Z,55.70
2017-08-17T10:46:34.335Z,55.41
2017-08-17T10:49:02.654Z,56.60
2017-08-17T10:51:30.487Z,54.96
2017-08-17T10:53:58.279Z,54.16
2017-08-17T10:56:26.168Z,54.42
2017-08-17T10:58:54.398Z,54.04
2017-08-17T11:01:22.052Z,53.50
2017-08-17T11:03:49.917Z,53.82
2017-08-17T11:06:17.938Z,54.89
2017-08-17T11:08:46.015Z,54.96
2017-08-17T11:11:13.640Z,55.13
2017-08-17T11:13:41.997Z,53.88
2017-08-17T11:16:09.862Z,53.51
2017-08-17T11:18:37.987Z,54.29
2017-08-17T11:21:05.854Z,53.45
2017-08-17T11:23:33.514Z,53.78
2017-08-17T11:26:01.808Z,52.42
2017-08-17T11:28:32.241Z,53.47
2017-08-17T11:30:59.925Z,53.89
2017-08-17T11:33:27.700Z,54.08
2017-08-17T11:35:55.862Z,52.59
2017-08-17T11:38:25.193Z,53.31
2017-08-17T11:40:53.007Z,52.42
2017-08-17T11:43:21.400Z,53.59
2017-08-17T11:45:48.867Z,54.10
2017-08-17T11:48:16.994Z,54.30
2017-08-17T11:50:44.707Z,55.22
2017-08-17T11:53:14.156Z,54.30
2017-08-17T11:55:41.838Z,52.93
2017-08-17T11:58:09.783Z,51.77
2017-08-17T12:00:37.243Z,51.66
2017-08-17T12:03:06.008Z,51.83
2017-08-17T12:05:35.250Z,52.05
2017-08-17T12:08:03.976Z,52.39
2017-08-17T12:10:32.883Z,52.85
2017-08-17T12:13:00.342Z,50.77
2017-08-17T12:15:27.859Z,51.96
2017-08-17T12:17:55.302Z,51.28
2017-08-17T12:20:22.783Z,52.41
2017-08-17T12:22:50.345Z,49.52
2017-08-17T12:25:17.799Z,50.38
2017-08-17T12:27:45.263Z,50.81
2017-08-17T12:30:12.804Z,50.80
2017-08-17T12:32:40.272Z,52.28
2017-08-17T12:35:07.828Z,52.59
2017-08-17T12:37:35.376Z,52.05
2017-08-17T12:40:02.819Z,51.35
2017-08-17T12:42:30.392Z,52.39
2017-08-17T12:44:58.076Z,51.58
2017-08-17T12:47:25.564Z,53.14
2017-08-17T12:49:53.010Z,51.13
2017-08-17T12:52:20.525Z,48.22
2017-08-17T12:54:48.088Z,50.53
2017-08-17T12:57:15.554Z,50.49
2017-08-17T12:59:43.131Z,49.31
2017-08-17T13:02:10.589Z,48.94
2017-08-17T13:04:38.075Z,47.08
2017-08-17T13:07:05.580Z,47.10
2017-08-17T13:09:33.056Z,46.35
2017-08-17T13:12:00.518Z,44.97
2017-08-17T13:14:27.988Z,45.06
2017-08-17T13:16:55.512Z,43.99
2017-08-17T13:19:23.015Z,44.50
2017-08-17T13:21:50.467Z,43.52
2017-08-17T13:24:17.974Z,43.43
2017-08-17T13:26:45.448Z,41.85
2017-08-17T13:29:13.000Z,43.66
2017-08-17T13:31:40.550Z,42.10
2017-08-17T13:34:08.003Z,43.85
2017-08-17T13:36:35.563Z,44.47
2017-08-17T13:39:03.016Z,43.94
2017-08-17T13:41:30.579Z,44.19
2017-08-17T13:43:58.027Z,45.69
2017-08-17T13:46:25.496Z,45.47
2017-08-17T13:48:53.355Z,44.49
2017-08-17T13:51:20.823Z,44.43
2017-08-17T13:53:48.369Z,43.64
2017-08-17T13:56:15.923Z,44.01
2017-08-17T13:58:43.384Z,43.68
2017-08-17T14:01:11.454Z,44.34
2017-08-17T14:03:39.013Z,44.62
2017-08-17T14:06:06.456Z,44.96
2017-08-17T14:08:34.063Z,43.92
2017-08-17T14:11:01.515Z,44.12
2017-08-17T14:13:29.054Z,45.93
2017-08-17T14:15:56.511Z,44.76
2017-08-17T14:18:24.050Z,45.67
2017-08-17T14:20:51.532Z,46.58
2017-08-17T14:23:18.999Z,45.78
2017-08-17T14:25:46.540Z,45.43
2017-08-17T14:28:14.016Z,46.30
2017-08-17T14:30:41.471Z,45.28
2017-08-17T14:33:08.919Z,45.39
2017-08-17T14:35:36.463Z,46.52
2017-08-17T14:38:03.907Z,46.96
2017-08-17T14:40:31.383Z,46.02
2017-08-17T14:42:58.932Z,45.94
2017-08-17T14:45:26.404Z,46.55
2017-08-17T14:47:54.204Z,47.67
2017-08-17T14:50:21.723Z,46.58
2017-08-17T14:52:49.299Z,47.89
2017-08-17T14:55:16.824Z,47.12
2017-08-17T14:57:44.271Z,47.07
2017-08-17T15:00:11.744Z,47.26
2017-08-17T15:02:39.204Z,46.69
2017-08-17T15:05:06.748Z,46.91
2017-08-17T15:07:34.215Z,48.05
2017-08-17T15:10:01.691Z,47.84
2017-08-17T15:12:29.143Z,47.96
2017-08-17T15:14:56.610Z,47.70
2017-08-17T15:17:24.135Z,48.75
2017-08-17T15:19:51.628Z,48.90
2017-08-17T15:22:19.164Z,48.27
2017-08-17T15:24:46.714Z,48.53
2017-08-17T15:27:14.220Z,49.23
2017-08-17T15:29:41.672Z,49.34
2017-08-17T15:32:09.186Z,50.04
2017-08-17T15:34:36.631Z,50.03
2017-08-17T15:37:04.098Z,49.93
2017-08-17T15:39:31.588Z,50.81
2017-08-17T15:41:59.115Z,50.08
2017-08-17T15:44:26.564Z,49.92
2017-08-17T15:46:54.044Z,49.80
2017-08-17T15:49:21.592Z,49.25
2017-08-17T15:51:49.059Z,49.82
2017-08-17T15:54:17.396Z,49.63
2017-08-17T15:56:44.991Z,50.20
2017-08-17T15:59:12.563Z,51.53
2017-08-17T16:01:40.096Z,49.94
2017-08-17T16:04:07.551Z,49.61
2017-08-17T16:06:35.111Z,50.55
2017-08-17T16:09:02.566Z,50.17
2017-08-17T16:11:30.084Z,50.17
2017-08-17T16:13:57.636Z,50.38
2017-08-17T16:16:25.103Z,50.31
2017-08-17T16:18:52.587Z,50.29
2017-08-17T16:21:20.049Z,50.61
2017-08-17T16:23:47.523Z,50.73
2017-08-17T16:26:15.050Z,50.27
2017-08-17T16:28:42.691Z,49.52
2017-08-17T16:31:10.180Z,49.75
2017-08-17T16:33:37.747Z,50.41
2017-08-17T16:36:05.210Z,51.06
2017-08-17T16:38:32.695Z,50.68
2017-08-17T16:41:00.231Z,50.09
2017-08-17T16:43:27.718Z,51.92
2017-08-17T16:45:55.259Z,52.86
2017-08-17T16:48:22.776Z,52.72
2017-08-17T16:50:50.262Z,53.91
2017-08-17T16:53:18.034Z,53.93
2017-08-17T16:55:45.528Z,53.67
2017-08-17T16:58:12.974Z,54.26
2017-08-17T17:00:40.458Z,54.40
2017-08-17T17:03:07.924Z,55.66
2017-08-17T17:05:35.499Z,54.14
2017-08-17T17:08:03.004Z,54.45
2017-08-17T17:10:30.511Z,54.55
2017-08-17T17:12:57.986Z,54.63
2017-08-17T17:15:25.528Z,55.54
2017-08-17T17:17:52.981Z,55.32
2017-08-17T17:20:20.451Z,53.66
2017-08-17T17:22:47.999Z,53.80
2017-08-17T17:25:15.472Z,55.21
2017-08-17T17:27:43.028Z,55.48
2017-08-17T17:30:10.489Z,54.67
2017-08-17T17:32:37.935Z,55.97
2017-08-17T17:35:05.407Z,55.60
2017-08-17T17:37:33.156Z,55.00
2017-08-17T17:40:00.631Z,54.79
2017-08-17T17:42:28.091Z,54.37
2017-08-17T17:44:55.549Z,54.20
2017-08-17T17:47:23.020Z,54.21
2017-08-17T17:49:50.491Z,56.21
2017-08-17T17:52:17.962Z,58.49
2017-08-17T17:54:45.440Z,56.19
2017-08-17T17:57:12.916Z,57.74
2017-08-17T17:59:40.456Z,56.78
2017-08-17T18:02:07.992Z,57.12
2017-08-17T18:04:35.447Z,56.65
2017-08-17T18:07:02.913Z,55.97
2017-08-17T18:09:30.393Z,56.95
2017-08-17T18:11:58.098Z,56.62
2017-08-17T18:14:25.736Z,56.32
2017-08-17T18:16:53.232Z,56.76
2017-08-17T18:19:20.774Z,57.32
2017-08-17T18:21:48.240Z,56.29
2017-08-17T18:24:15.704Z,57.07
2017-08-17T18:26:43.408Z,58.46
2017-08-17T18:29:10.915Z,57.21
2017-08-17T18:31:38.373Z,58.68
2017-08-17T18:34:05.878Z,58.71
2017-08-17T18:36:33.432Z,59.02
2017-08-17T18:39:01.700Z,60.19
2017-08-17T18:41:29.159Z,60.76
2017-08-17T18:43:56.630Z,62.22
2017-08-17T18:46:24.096Z,62.02
2017-08-17T18:48:51.568Z,64.82
2017-08-17T18:51:19.022Z,63.99
2017-08-17T18:53:46.525Z,64.30
2017-08-17T18:56:13.976Z,65.56
2017-08-17T18:58:41.465Z,64.83
2017-08-17T19:01:09.012Z,64.81
2017-08-17T19:03:36.480Z,65.26
2017-08-17T19:06:03.940Z,65.26
2017-08-17T19:08:31.404Z,65.15
2017-08-17T19:10:58.946Z,64.70
2017-08-17T19:13:26.391Z,65.80
2017-08-17T19:15:53.857Z,66.67
2017-08-17T19:18:21.308Z,67.95
2017-08-17T19:20:48.770Z,68.05
2017-08-17T19:23:16.235Z,69.23
2017-08-17T19:25:43.703Z,69.94
2017-08-17T19:28:11.250Z,69.99
2017-08-17T19:30:38.736Z,70.99
2017-08-17T19:33:06.187Z,71.78
2017-08-17T19:35:33.664Z,72.80
2017-08-17T19:38:01.173Z,72.57
2017-08-17T19:40:28.661Z,73.02
2017-08-17T19:42:56.188Z,73.23
2017-08-17T19:45:23.748Z,74.22
2017-08-17T19:47:51.190Z,74.91
2017-08-17T19:50:18.659Z,75.52
2017-08-17T19:52:46.107Z,75.65
2017-08-17T19:55:13.854Z,74.92
2017-08-17T19:57:41.327Z,76.74
2017-08-17T20:00:08.783Z,76.03
2017-08-17T20:02:36.343Z,76.17
2017-08-17T20:05:03.791Z,76.65
2017-08-17T20:07:31.410Z,76.15
2017-08-17T20:09:58.945Z,76.26
2017-08-17T20:12:26.730Z,75.11
2017-08-17T20:14:54.187Z,75.31
2017-08-17T20:17:21.759Z,74.96
2017-08-17T20:19:49.259Z,74.12
2017-08-17T20:22:16.732Z,74.16
2017-08-17T20:24:44.182Z,73.66
2017-08-17T20:27:11.660Z,74.39
2017-08-17T20:29:39.112Z,74.39
2017-08-17T20:32:06.637Z,74.72
2017-08-17T20:34:34.098Z,75.41
2017-08-17T20:37:01.600Z,76.14
2017-08-17T20:39:29.493Z,74.82
2017-08-17T20:41:57.284Z,75.09
2017-08-17T20:44:24.740Z,76.02
2017-08-17T20:46:52.200Z,76.30
2017-08-17T20:49:19.761Z,76.57
2017-08-17T20:51:47.317Z,76.37
2017-08-17T20:54:14.784Z,77.27
2017-08-17T20:56:42.332Z,79.02
2017-08-17T20:59:09.795Z,79.75
2017-08-17T21:01:37.255Z,79.07
2017-08-17T21:04:06.072Z,78.49
2017-08-17T21:06:33.854Z,79.11
2017-08-17T21:09:01.904Z,79.96
2017-08-17T21:11:29.469Z,80.41
2017-08-17T21:13:56.979Z,79.78
2017-08-17T21:16:24.440Z,80.81
2017-08-17T21:18:51.913Z,79.45
2017-08-17T21:21:19.456Z,79.46
2017-08-17T21:23:46.927Z,78.85
2017-08-17T21:26:14.486Z,79.13
2017-08-17T21:28:41.928Z,78.13
2017-08-17T21:31:09.403Z,78.31
2017-08-17T21:33:36.847Z,78.29
2017-08-17T21:36:04.320Z,77.95
2017-08-17T21:38:32.198Z,78.71
2017-08-17T21:40:59.696Z,78.10
2017-08-17T21:43:27.143Z,79.47
2017-08-17T21:45:54.631Z,80.23
2017-08-17T21:48:22.094Z,80.21
2017-08-17T21:50:49.845Z,80.92
2017-08-17T21:53:17.292Z,82.17
2017-08-17T21:55:44.767Z,81.33
2017-08-17T21:58:12.326Z,82.48
2017-08-17T22:00:39.796Z,81.03
2017-08-17T22:03:07.341Z,81.69
2017-08-17T22:05:34.831Z,81.17
2017-08-17T22:08:02.284Z,80.93
2017-08-17T22:10:29.767Z,79.75
2017-08-17T22:12:57.231Z,79.02
2017-08-17T22:15:24.680Z,80.20
2017-08-17T22:17:52.159Z,79.69
2017-08-17T22:20:19.637Z,80.36
2017-08-17T22:22:47.105Z,80.37
2017-08-17T22:25:14.662Z,80.24
2017-08-17T22:27:42.135Z,80.58
2017-08-17T22:30:09.591Z,80.76
2017-08-17T22:32:37.073Z,82.32
2017-08-17T22:35:04.584Z,81.99
2017-08-17T22:37:32.046Z,82.10
2017-08-17T22:39:59.596Z,81.54
2017-08-17T22:42:27.257Z,81.09
2017-08-17T22:44:54.703Z,82.18
2017-08-17T22:47:22.171Z,83.28
2017-08-17T22:49:49.728Z,82.69
2017-08-17T22:52:17.175Z,83.66
2017-08-17T22:54:45.205Z,83.60
2017-08-17T22:57:12.714Z,83.51
2017-08-17T22:59:40.271Z,82.80
2017-08-17T23:02:07.883Z,83.22
2017-08-17T23:04:35.390Z,82.43
2017-08-17T23:07:02.959Z,83.22
2017-08-17T23:09:30.427Z,82.70
2017-08-17T23:11:57.964Z,83.80
2017-08-17T23:14:25.434Z,83.64
2017-08-17T23:16:52.975Z,83.47
2017-08-17T23:19:20.539Z,83.32
2017-08-17T23:21:47.992Z,82.51
2017-08-17T23:24:15.564Z,82.59
2017-08-17T23:26:43.020Z,82.45
2017-08-17T23:29:10.491Z,84.01
2017-08-17T23:31:37.950Z,84.79
2017-08-17T23:34:05.460Z,84.58
2017-08-17T23:36:32.917Z,84.00
2017-08-17T23:39:00.360Z,84.12
2017-08-17T23:41:27.828Z,84.36
2017-08-17T23:43:55.274Z,84.03
2017-08-17T23:46:22.771Z,83.90
2017-08-17T23:48:50.219Z,83.88
2017-08-17T23:51:17.683Z,84.09
2017-08-17T23:53:45.156Z,83.89
2017-08-17T23:56:12.618Z,83.90
2017-08-17T23:58:40.076Z,84.07
